createdAt,value
2018-05-16T00:01:19.349Z,10.90
2018-05-16T00:03:47.988Z,10.93
2018-05-16T00:06:16.829Z,10.94
2018-05-16T00:08:45.509Z,10.96
2018-05-16T00:11:13.674Z,10.98
2018-05-16T00:13:42.328Z,10.97
2018-05-16T00:16:11.128Z,10.96
2018-05-16T00:18:39.937Z,10.94
2018-05-16T00:21:08.719Z,10.97
2018-05-16T00:23:37.348Z,11.00
2018-05-16T00:26:06.323Z,10.97
2018-05-16T00:28:35.020Z,11.02
2018-05-16T00:31:03.838Z,11.04
2018-05-16T00:33:32.829Z,11.05
2018-05-16T00:36:01.421Z,11.03
2018-05-16T00:38:30.065Z,11.01
2018-05-16T00:40:58.940Z,10.94
2018-05-16T00:43:27.589Z,11.00
2018-05-16T00:45:56.827Z,11.03
2018-05-16T00:48:25.456Z,11.01
2018-05-16T00:51:00.541Z,11.01
2018-05-16T00:53:28.668Z,10.96
2018-05-16T00:55:57.307Z,10.96
2018-05-16T00:58:26.219Z,10.98
2018-05-16T01:00:55.269Z,10.96
2018-05-16T01:03:23.909Z,11.00
2018-05-16T01:05:52.685Z,11.06
2018-05-16T01:08:21.513Z,11.09
2018-05-16T01:10:50.294Z,11.00
2018-05-16T01:13:19.067Z,11.00
2018-05-16T01:15:47.708Z,11.04
2018-05-16T01:18:16.358Z,10.93
2018-05-16T01:20:44.849Z,10.98
2018-05-16T01:23:13.526Z,10.95
2018-05-16T01:25:42.389Z,11.02
2018-05-16T01:28:10.773Z,11.04
2018-05-16T01:30:39.280Z,10.94
2018-05-16T01:33:07.792Z,10.98
2018-05-16T01:35:36.323Z,10.98
2018-05-16T01:38:05.189Z,10.98
2018-05-16T01:40:33.729Z,10.89
2018-05-16T01:43:02.531Z,10.78
2018-05-16T01:45:30.988Z,10.76
2018-05-16T01:47:59.999Z,10.70
2018-05-16T01:50:28.303Z,10.71
2018-05-16T01:52:56.760Z,10.73
2018-05-16T01:55:25.239Z,10.80
2018-05-16T01:57:54.228Z,10.73
2018-05-16T02:00:22.712Z,10.76
2018-05-16T02:02:51.616Z,10.76
2018-05-16T02:05:20.221Z,10.62
2018-05-16T02:07:49.001Z,10.52
2018-05-16T02:10:17.857Z,10.61
2018-05-16T02:12:46.510Z,10.59
2018-05-16T02:15:15.037Z,10.65
2018-05-16T02:17:43.821Z,10.69
2018-05-16T02:20:12.384Z,10.69
2018-05-16T02:22:40.725Z,10.63
2018-05-16T02:25:09.212Z,10.65
2018-05-16T02:27:37.905Z,10.66
2018-05-16T02:30:07.239Z,10.70
2018-05-16T02:32:35.733Z,10.71
2018-05-16T02:35:04.099Z,10.77
2018-05-16T02:37:33.023Z,10.70
2018-05-16T02:40:01.484Z,10.69
2018-05-16T02:42:30.276Z,10.70
2018-05-16T02:44:58.908Z,10.73
2018-05-16T02:47:27.635Z,10.81
2018-05-16T02:49:56.242Z,10.77
2018-05-16T02:52:24.793Z,10.74
2018-05-16T02:54:53.614Z,10.76
2018-05-16T02:57:22.359Z,10.72
2018-05-16T02:59:50.944Z,10.78
2018-05-16T03:02:19.757Z,10.68
2018-05-16T03:04:48.401Z,10.67
2018-05-16T03:07:16.776Z,10.65
2018-05-16T03:09:45.361Z,10.72
2018-05-16T03:12:13.965Z,10.70
2018-05-16T03:14:42.720Z,10.75
2018-05-16T03:17:11.314Z,10.70
2018-05-16T03:19:40.177Z,10.69
2018-05-16T03:22:08.717Z,10.74
2018-05-16T03:24:37.689Z,10.76
2018-05-16T03:27:06.184Z,10.77
2018-05-16T03:29:34.769Z,10.75
2018-05-16T03:32:03.473Z,10.74
2018-05-16T03:34:32.243Z,10.82
2018-05-16T03:37:00.957Z,10.82
2018-05-16T03:39:30.022Z,10.80
2018-05-16T03:41:58.552Z,10.78
2018-05-16T03:44:27.517Z,10.86
2018-05-16T03:46:56.057Z,10.87
2018-05-16T03:49:24.568Z,10.83
2018-05-16T03:51:54.095Z,10.87
2018-05-16T03:54:22.776Z,10.84
2018-05-16T03:56:51.168Z,10.86
2018-05-16T03:59:26.045Z,10.87
2018-05-16T04:02:01.052Z,10.92
2018-05-16T04:04:30.181Z,10.83
2018-05-16T04:06:58.867Z,10.95
2018-05-16T04:09:27.301Z,11.24
2018-05-16T04:11:55.838Z,11.01
2018-05-16T04:14:24.423Z,10.91
2018-05-16T04:16:52.959Z,11.05
2018-05-16T04:19:21.276Z,10.95
2018-05-16T04:21:50.777Z,10.99
2018-05-16T04:24:19.569Z,10.86
2018-05-16T04:26:48.161Z,10.73
2018-05-16T04:29:16.814Z,10.73
2018-05-16T04:31:45.596Z,10.71
2018-05-16T04:34:14.277Z,10.74
2018-05-16T04:36:42.973Z,10.71
2018-05-16T04:39:11.465Z,10.86
2018-05-16T04:41:40.083Z,10.78
2018-05-16T04:44:09.352Z,10.79
2018-05-16T04:46:37.857Z,10.80
2018-05-16T04:49:06.662Z,10.80
2018-05-16T04:51:35.145Z,10.86
2018-05-16T04:54:03.661Z,10.88
2018-05-16T04:56:32.143Z,10.94
2018-05-16T04:59:00.466Z,10.99
2018-05-16T05:01:29.029Z,11.02
2018-05-16T05:03:57.729Z,11.02
2018-05-16T05:06:26.034Z,11.06
2018-05-16T05:08:54.635Z,11.17
2018-05-16T05:11:23.437Z,11.05
2018-05-16T05:13:51.973Z,11.03
2018-05-16T05:16:20.551Z,11.16
2018-05-16T05:18:49.081Z,11.26
2018-05-16T05:21:17.459Z,11.06
2018-05-16T05:23:46.070Z,10.94
2018-05-16T05:26:14.995Z,10.89
2018-05-16T05:28:43.456Z,10.82
2018-05-16T05:31:12.229Z,10.95
2018-05-16T05:33:40.948Z,10.97
2018-05-16T05:36:09.764Z,10.95
2018-05-16T05:38:38.130Z,10.92
2018-05-16T05:41:07.442Z,10.91
2018-05-16T05:43:36.238Z,11.01
2018-05-16T05:46:04.560Z,11.07
2018-05-16T05:48:33.385Z,11.10
2018-05-16T05:51:02.521Z,11.11
2018-05-16T05:53:31.137Z,11.22
2018-05-16T05:56:00.017Z,11.21
2018-05-16T05:58:28.497Z,11.14
2018-05-16T06:00:57.141Z,11.17
2018-05-16T06:03:25.913Z,11.27
2018-05-16T06:05:54.538Z,11.28
2018-05-16T06:08:23.253Z,11.27
2018-05-16T06:10:51.750Z,11.25
2018-05-16T06:13:21.016Z,11.29
2018-05-16T06:15:49.513Z,11.31
2018-05-16T06:18:18.249Z,11.38
2018-05-16T06:20:46.877Z,11.44
2018-05-16T06:23:15.536Z,11.49
2018-05-16T06:25:44.348Z,11.39
2018-05-16T06:28:12.814Z,11.50
2018-05-16T06:30:41.597Z,11.56
2018-05-16T06:33:10.010Z,11.60
2018-05-16T06:35:38.562Z,11.54
2018-05-16T06:38:06.939Z,11.40
2018-05-16T06:40:35.413Z,11.52
2018-05-16T06:43:03.568Z,11.55
2018-05-16T06:45:31.964Z,11.56
2018-05-16T06:48:00.570Z,11.60
2018-05-16T06:50:29.120Z,11.53
2018-05-16T06:52:58.118Z,11.51
2018-05-16T06:55:26.583Z,11.47
2018-05-16T06:57:55.194Z,11.51
2018-05-16T07:00:23.729Z,11.43
2018-05-16T07:02:52.145Z,11.43
2018-05-16T07:05:20.700Z,11.53
2018-05-16T07:07:49.317Z,11.49
2018-05-16T07:10:17.997Z,11.50
2018-05-16T07:12:46.246Z,11.57
2018-05-16T07:15:14.741Z,11.56
2018-05-16T07:17:42.981Z,11.53
2018-05-16T07:20:11.477Z,11.62
2018-05-16T07:22:39.960Z,11.63
2018-05-16T07:25:08.192Z,11.77
2018-05-16T07:27:36.661Z,11.73
2018-05-16T07:30:04.944Z,11.92
2018-05-16T07:32:33.487Z,12.00
2018-05-16T07:35:02.050Z,12.05
2018-05-16T07:37:30.723Z,12.07
2018-05-16T07:39:59.448Z,12.09
2018-05-16T07:42:27.807Z,12.06
2018-05-16T07:44:56.207Z,11.96
2018-05-16T07:47:24.699Z,12.02
2018-05-16T07:49:53.337Z,12.00
2018-05-16T07:52:21.783Z,11.98
2018-05-16T07:54:50.534Z,11.94
2018-05-16T07:57:19.443Z,11.96
2018-05-16T07:59:47.746Z,11.87
2018-05-16T08:02:16.299Z,11.88
2018-05-16T08:04:44.973Z,11.87
2018-05-16T08:07:13.403Z,11.85
2018-05-16T08:09:42.215Z,11.94
2018-05-16T08:12:10.769Z,11.88
2018-05-16T08:14:39.124Z,11.95
2018-05-16T08:17:07.506Z,12.04
2018-05-16T08:19:36.221Z,12.10
2018-05-16T08:22:04.563Z,12.25
2018-05-16T08:24:32.918Z,12.44
2018-05-16T08:27:01.574Z,12.61
2018-05-16T08:29:30.111Z,12.70
2018-05-16T08:31:58.778Z,12.99
2018-05-16T08:34:27.489Z,13.03
2018-05-16T08:36:56.152Z,13.08
2018-05-16T08:39:24.689Z,13.26
2018-05-16T08:41:53.074Z,13.33
2018-05-16T08:44:21.427Z,13.35
2018-05-16T08:46:50.130Z,13.28
2018-05-16T08:49:18.714Z,13.33
2018-05-16T08:51:47.054Z,13.23
2018-05-16T08:54:15.747Z,12.84
2018-05-16T08:56:44.426Z,12.86
2018-05-16T08:59:12.644Z,12.79
2018-05-16T09:01:41.144Z,12.85
2018-05-16T09:04:10.267Z,12.84
2018-05-16T09:06:39.078Z,12.83
2018-05-16T09:09:07.832Z,12.71
2018-05-16T09:11:36.544Z,12.80
2018-05-16T09:14:05.004Z,12.80
2018-05-16T09:16:33.591Z,12.78
2018-05-16T09:19:02.486Z,12.91
2018-05-16T09:21:31.190Z,12.91
2018-05-16T09:23:59.826Z,13.02
2018-05-16T09:26:28.619Z,13.17
2018-05-16T09:28:57.260Z,13.26
2018-05-16T09:31:25.907Z,13.30
2018-05-16T09:33:54.448Z,13.32
2018-05-16T09:36:22.853Z,13.25
2018-05-16T09:38:51.338Z,13.33
2018-05-16T09:41:19.763Z,13.50
2018-05-16T09:43:48.223Z,13.75
2018-05-16T09:46:16.667Z,13.67
2018-05-16T09:48:45.214Z,13.76
2018-05-16T09:51:13.936Z,13.94
2018-05-16T09:53:42.653Z,14.14
2018-05-16T09:56:11.323Z,14.17
2018-05-16T09:58:39.968Z,13.98
2018-05-16T10:01:08.287Z,14.11
2018-05-16T10:03:36.808Z,14.09
2018-05-16T10:06:05.303Z,14.13
2018-05-16T10:08:33.929Z,14.32
2018-05-16T10:11:02.413Z,14.41
2018-05-16T10:13:30.937Z,14.35
2018-05-16T10:15:59.488Z,14.35
2018-05-16T10:18:28.018Z,14.22
2018-05-16T10:20:56.487Z,14.14
2018-05-16T10:23:25.002Z,14.32
2018-05-16T10:25:53.687Z,14.18
2018-05-16T10:28:22.176Z,14.29
2018-05-16T10:30:50.615Z,14.39
2018-05-16T10:33:19.256Z,14.43
2018-05-16T10:35:47.750Z,14.13
2018-05-16T10:38:18.234Z,14.30
2018-05-16T10:40:48.719Z,14.42
2018-05-16T10:43:19.200Z,14.36
2018-05-16T10:45:47.538Z,14.34
2018-05-16T10:48:20.648Z,14.54
2018-05-16T10:50:49.007Z,14.60
2018-05-16T10:53:19.335Z,14.80
2018-05-16T10:55:47.739Z,15.08
2018-05-16T10:58:16.091Z,15.20
2018-05-16T11:00:44.461Z,15.36
2018-05-16T11:03:12.827Z,15.09
2018-05-16T11:05:43.414Z,14.83
2018-05-16T11:08:11.818Z,14.56
2018-05-16T11:10:42.415Z,14.31
2018-05-16T11:13:12.931Z,13.90
2018-05-16T11:15:43.580Z,13.60
2018-05-16T11:18:11.930Z,13.47
2018-05-16T11:20:42.558Z,13.15
2018-05-16T11:23:10.956Z,13.00
2018-05-16T11:25:41.467Z,12.83
2018-05-16T11:28:09.814Z,12.95
2018-05-16T11:30:38.292Z,13.01
2018-05-16T11:33:06.654Z,13.02
2018-05-16T11:35:35.039Z,13.24
2018-05-16T11:38:05.555Z,13.09
2018-05-16T11:40:36.187Z,13.34
2018-05-16T11:43:04.879Z,13.50
2018-05-16T11:45:33.223Z,13.69
2018-05-16T11:48:03.671Z,13.68
2018-05-16T11:50:34.196Z,13.79
2018-05-16T11:53:02.572Z,14.00
2018-05-16T11:55:30.979Z,13.94
2018-05-16T11:57:59.654Z,14.01
2018-05-16T12:00:30.309Z,14.10
2018-05-16T12:02:58.709Z,14.28
2018-05-16T12:05:27.119Z,14.34
2018-05-16T12:07:55.482Z,14.62
2018-05-16T12:10:23.856Z,14.35
2018-05-16T12:12:52.280Z,14.19
2018-05-16T12:15:20.670Z,14.03
2018-05-16T12:17:49.037Z,13.83
2018-05-16T12:20:17.394Z,13.89
2018-05-16T12:22:45.779Z,13.76
2018-05-16T12:25:14.371Z,13.79
2018-05-16T12:27:49.323Z,13.87
2018-05-16T12:30:20.143Z,14.01
2018-05-16T12:32:48.505Z,14.08
2018-05-16T12:35:16.891Z,14.12
2018-05-16T12:37:45.704Z,14.22
2018-05-16T12:40:14.071Z,14.54
2018-05-16T12:42:50.921Z,14.67
2018-05-16T12:45:23.555Z,14.63
2018-05-16T12:47:51.951Z,14.46
2018-05-16T12:50:24.476Z,14.50
2018-05-16T12:52:52.863Z,14.51
2018-05-16T12:55:23.331Z,14.48
2018-05-16T12:57:53.987Z,14.62
2018-05-16T13:00:24.339Z,14.51
2018-05-16T13:02:52.703Z,14.58
2018-05-16T13:05:21.068Z,14.80
2018-05-16T13:07:53.487Z,14.79
2018-05-16T13:10:22.114Z,14.88
2018-05-16T13:12:50.490Z,14.96
2018-05-16T13:15:21.087Z,15.00
2018-05-16T13:17:49.562Z,15.15
2018-05-16T13:20:20.060Z,14.91
2018-05-16T13:22:50.641Z,14.98
2018-05-16T13:25:23.408Z,14.81
2018-05-16T13:27:51.819Z,14.64
2018-05-16T13:30:20.228Z,14.66
2018-05-16T13:32:48.595Z,14.64
2018-05-16T13:35:19.507Z,14.65
2018-05-16T13:37:50.111Z,14.42
2018-05-16T13:40:21.075Z,14.21
2018-05-16T13:42:49.459Z,14.26
2018-05-16T13:45:22.253Z,14.13
2018-05-16T13:47:50.631Z,14.09
2018-05-16T13:50:18.991Z,14.21
2018-05-16T13:52:49.570Z,14.37
2018-05-16T13:55:18.246Z,14.52
2018-05-16T13:57:46.604Z,14.42
2018-05-16T14:00:17.018Z,14.35
2018-05-16T14:02:45.463Z,14.38
2018-05-16T14:05:13.872Z,14.44
2018-05-16T14:07:42.235Z,14.45
2018-05-16T14:10:10.627Z,14.42
2018-05-16T14:12:39.055Z,14.44
2018-05-16T14:15:09.179Z,14.47
2018-05-16T14:17:37.536Z,14.49
2018-05-16T14:20:08.149Z,14.46
2018-05-16T14:22:38.606Z,14.62
2018-05-16T14:25:07.083Z,14.68
2018-05-16T14:27:35.471Z,14.37
2018-05-16T14:30:03.899Z,14.20
2018-05-16T14:32:34.421Z,14.34
2018-05-16T14:35:02.827Z,13.93
2018-05-16T14:37:31.197Z,14.22
2018-05-16T14:39:59.603Z,14.32
2018-05-16T14:42:27.978Z,14.20
2018-05-16T14:44:56.332Z,14.26
2018-05-16T14:47:24.727Z,14.26
2018-05-16T14:49:53.095Z,14.26
2018-05-16T14:52:23.547Z,14.46
2018-05-16T14:54:52.148Z,14.71
2018-05-16T14:57:22.331Z,14.77
2018-05-16T14:59:52.762Z,14.84
2018-05-16T15:02:21.151Z,15.04
2018-05-16T15:04:49.522Z,14.99
2018-05-16T15:07:20.228Z,15.09
2018-05-16T15:09:48.623Z,15.32
2018-05-16T15:12:17.015Z,15.37
2018-05-16T15:14:45.480Z,15.42
2018-05-16T15:17:13.797Z,15.38
2018-05-16T15:19:42.466Z,15.31
2018-05-16T15:22:10.828Z,15.29
2018-05-16T15:24:39.203Z,15.19
2018-05-16T15:27:09.783Z,15.15
2018-05-16T15:29:38.187Z,15.17
2018-05-16T15:32:06.514Z,15.13
2018-05-16T15:34:37.075Z,15.22
2018-05-16T15:37:09.537Z,14.95
2018-05-16T15:39:39.941Z,14.91
2018-05-16T15:42:12.060Z,14.81
2018-05-16T15:44:42.591Z,14.67
2018-05-16T15:47:10.976Z,14.56
2018-05-16T15:49:39.327Z,14.54
2018-05-16T15:52:09.862Z,14.52
2018-05-16T15:54:38.272Z,14.58
2018-05-16T15:57:06.724Z,14.49
2018-05-16T15:59:35.173Z,14.58
2018-05-16T16:02:05.688Z,14.66
2018-05-16T16:04:34.074Z,14.68
2018-05-16T16:07:04.567Z,14.76
2018-05-16T16:09:34.814Z,14.75
2018-05-16T16:12:03.191Z,14.77
2018-05-16T16:14:31.532Z,14.91
2018-05-16T16:16:59.971Z,14.91
2018-05-16T16:19:28.331Z,14.91
2018-05-16T16:21:56.709Z,14.75
2018-05-16T16:24:25.143Z,14.82
2018-05-16T16:26:53.765Z,14.58
2018-05-16T16:29:22.180Z,14.55
2018-05-16T16:31:50.575Z,14.36
2018-05-16T16:34:19.061Z,14.49
2018-05-16T16:36:47.368Z,14.60
2018-05-16T16:39:20.051Z,14.62
2018-05-16T16:41:48.420Z,14.60
2018-05-16T16:44:17.021Z,14.40
2018-05-16T16:46:47.549Z,14.29
2018-05-16T16:49:16.075Z,14.42
2018-05-16T16:51:44.463Z,14.34
2018-05-16T16:54:16.538Z,14.24
2018-05-16T16:56:45.042Z,14.38
2018-05-16T16:59:17.846Z,14.28
2018-05-16T17:01:46.557Z,14.24
2018-05-16T17:04:17.083Z,14.16
2018-05-16T17:06:45.514Z,14.12
2018-05-16T17:09:14.316Z,14.07
2018-05-16T17:11:44.786Z,13.98
2018-05-16T17:14:15.270Z,14.06
2018-05-16T17:16:43.663Z,13.90
2018-05-16T17:19:14.172Z,13.79
2018-05-16T17:21:42.601Z,13.75
2018-05-16T17:24:11.101Z,13.70
2018-05-16T17:26:39.423Z,13.67
2018-05-16T17:29:09.799Z,13.72
2018-05-16T17:31:38.216Z,13.79
2018-05-16T17:34:08.714Z,13.64
2018-05-16T17:36:41.616Z,13.76
2018-05-16T17:39:10.038Z,13.60
2018-05-16T17:41:38.473Z,13.63
2018-05-16T17:44:06.849Z,13.64
2018-05-16T17:46:35.239Z,13.86
2018-05-16T17:49:03.632Z,13.74
2018-05-16T17:51:36.230Z,13.61
2018-05-16T17:54:08.584Z,13.40
2018-05-16T17:56:39.210Z,13.36
2018-05-16T17:59:07.593Z,13.67
2018-05-16T18:01:36.019Z,13.48
2018-05-16T18:04:04.439Z,13.43
2018-05-16T18:06:32.886Z,13.71
2018-05-16T18:09:01.253Z,13.47
2018-05-16T18:11:29.672Z,13.27
2018-05-16T18:14:06.368Z,13.16
2018-05-16T18:16:41.083Z,13.27
2018-05-16T18:19:09.970Z,13.13
2018-05-16T18:21:38.489Z,13.18
2018-05-16T18:24:09.219Z,13.13
2018-05-16T18:26:42.133Z,13.19
2018-05-16T18:29:10.649Z,13.22
2018-05-16T18:31:41.369Z,13.25
2018-05-16T18:34:14.293Z,13.10
2018-05-16T18:36:42.748Z,12.96
2018-05-16T18:39:11.135Z,12.87
2018-05-16T18:41:39.964Z,12.85
2018-05-16T18:44:12.865Z,12.77
2018-05-16T18:46:41.289Z,12.86
2018-05-16T18:49:09.836Z,12.84
2018-05-16T18:51:38.133Z,12.82
2018-05-16T18:54:06.519Z,12.74
2018-05-16T18:56:34.931Z,12.71
2018-05-16T18:59:03.316Z,12.64
2018-05-16T19:01:35.791Z,12.55
2018-05-16T19:04:04.202Z,12.48
2018-05-16T19:06:35.279Z,12.47
2018-05-16T19:09:05.664Z,12.41
2018-05-16T19:11:34.092Z,12.35
2018-05-16T19:14:04.647Z,12.44
2018-05-16T19:16:35.244Z,12.28
2018-05-16T19:19:03.639Z,12.43
2018-05-16T19:21:32.044Z,12.30
2018-05-16T19:24:02.765Z,12.27
2018-05-16T19:26:31.177Z,12.20
2018-05-16T19:28:59.542Z,12.18
2018-05-16T19:31:30.204Z,12.16
2018-05-16T19:33:58.656Z,12.24
2018-05-16T19:36:27.111Z,12.25
2018-05-16T19:38:55.617Z,12.12
2018-05-16T19:41:24.007Z,12.09
2018-05-16T19:43:52.435Z,12.09
2018-05-16T19:46:20.854Z,12.05
2018-05-16T19:48:51.511Z,12.12
2018-05-16T19:51:20.084Z,12.10
2018-05-16T19:53:50.440Z,12.10
2018-05-16T19:56:18.824Z,12.16
2018-05-16T19:58:49.628Z,12.14
2018-05-16T20:01:18.120Z,12.11
2018-05-16T20:03:48.719Z,12.12
2018-05-16T20:06:17.107Z,12.10
2018-05-16T20:08:45.500Z,12.08
2018-05-16T20:11:13.925Z,12.08
2018-05-16T20:13:42.266Z,12.01
2018-05-16T20:16:10.668Z,11.99
2018-05-16T20:18:39.056Z,12.02
2018-05-16T20:21:07.452Z,12.17
2018-05-16T20:23:36.171Z,12.09
2018-05-16T20:26:06.799Z,11.99
2018-05-16T20:28:37.646Z,12.25
2018-05-16T20:31:06.135Z,11.98
2018-05-16T20:33:36.786Z,11.94
2018-05-16T20:36:05.222Z,12.01
2018-05-16T20:38:33.661Z,11.72
2018-05-16T20:41:02.014Z,11.80
2018-05-16T20:43:30.416Z,11.83
2018-05-16T20:45:58.844Z,11.63
2018-05-16T20:48:27.671Z,11.70
2018-05-16T20:50:56.067Z,11.44
2018-05-16T20:53:24.434Z,11.52
2018-05-16T20:55:52.907Z,11.69
2018-05-16T20:58:25.713Z,11.53
2018-05-16T21:00:56.377Z,11.50
2018-05-16T21:03:24.767Z,11.49
2018-05-16T21:05:55.426Z,11.55
2018-05-16T21:08:23.869Z,11.67
2018-05-16T21:10:54.483Z,11.55
2018-05-16T21:13:22.934Z,11.56
2018-05-16T21:15:51.344Z,11.54
2018-05-16T21:18:19.735Z,11.53
2018-05-16T21:20:50.499Z,11.56
2018-05-16T21:23:18.900Z,11.57
2018-05-16T21:25:47.259Z,11.64
2018-05-16T21:28:15.707Z,11.69
2018-05-16T21:30:44.062Z,11.67
2018-05-16T21:33:12.480Z,11.66
2018-05-16T21:35:40.891Z,11.67
2018-05-16T21:38:09.323Z,11.67
2018-05-16T21:40:37.696Z,11.74
2018-05-16T21:43:06.476Z,11.80
2018-05-16T21:45:34.838Z,11.79
2018-05-16T21:48:03.219Z,11.77
2018-05-16T21:50:33.947Z,11.80
2018-05-16T21:53:04.599Z,11.75
2018-05-16T21:55:32.984Z,11.66
2018-05-16T21:58:01.344Z,11.66
2018-05-16T22:00:32.023Z,11.61
2018-05-16T22:03:00.439Z,11.50
2018-05-16T22:05:31.147Z,11.47
2018-05-16T22:07:59.543Z,11.44
2018-05-16T22:10:27.893Z,11.59
2018-05-16T22:12:56.279Z,11.64
2018-05-16T22:15:24.660Z,11.49
2018-05-16T22:17:53.024Z,11.44
2018-05-16T22:20:23.690Z,11.43
2018-05-16T22:22:52.090Z,11.66
2018-05-16T22:25:20.419Z,11.47
2018-05-16T22:27:48.810Z,11.51
2018-05-16T22:30:17.076Z,11.36
2018-05-16T22:32:51.771Z,11.26
2018-05-16T22:35:26.194Z,11.19
2018-05-16T22:38:00.824Z,11.23
2018-05-16T22:40:35.531Z,11.28
2018-05-16T22:43:06.078Z,11.29
2018-05-16T22:45:37.735Z,11.34
2018-05-16T22:48:06.202Z,11.28
2018-05-16T22:50:34.579Z,11.24
2018-05-16T22:53:02.955Z,11.37
2018-05-16T22:55:33.792Z,11.47
2018-05-16T22:58:02.167Z,11.49
2018-05-16T23:00:30.549Z,11.33
2018-05-16T23:02:58.829Z,11.22
2018-05-16T23:05:27.187Z,11.26
2018-05-16T23:07:55.508Z,11.07
2018-05-16T23:10:25.984Z,11.14
2018-05-16T23:12:56.624Z,10.94
2018-05-16T23:15:24.988Z,10.95
2018-05-16T23:17:55.596Z,10.79
2018-05-16T23:20:23.986Z,10.59
2018-05-16T23:22:54.637Z,10.48
2018-05-16T23:25:22.984Z,10.44
2018-05-16T23:27:51.359Z,10.47
2018-05-16T23:30:22.875Z,10.48
2018-05-16T23:32:51.300Z,10.80
2018-05-16T23:35:19.667Z,10.77
2018-05-16T23:37:48.076Z,10.62
2018-05-16T23:40:20.515Z,10.50
2018-05-16T23:42:48.928Z,10.71
2018-05-16T23:45:17.636Z,10.52
2018-05-16T23:47:48.311Z,10.46
2018-05-16T23:50:16.687Z,10.57
2018-05-16T23:52:45.459Z,10.61
2018-05-16T23:55:13.826Z,10.44
2018-05-16T23:57:42.178Z,10.41
